ADDS METAR Data INFO
IDs: Format: Raw Decoded Include TAF

Data at: 1045 UTC 19 Oct 2017

KOAJ 190956Z AUTO 01003KT 10SM CLR 13/12 A3026 RMK AO2 SLP252 T01280122
KOAJ 190856Z AUTO 05004KT 10SM CLR 12/12 A3026 RMK AO2 SLP253 T01220117 55005
KOAJ 190756Z AUTO 03004KT 10SM CLR 12/11 A3026 RMK AO2 SLP252 T01220111
KOAJ 190656Z AUTO 02003KT 10SM FEW050 13/12 A3027 RMK AO2 SLP256 T01280122
KOAJ 190556Z AUTO 02004KT 10SM FEW050 12/12 A3028 RMK AO2 SLP258 T01220117 10133 20111 58007
KOAJ 190456Z AUTO 00000KT 10SM CLR 12/12 A3029 RMK AO2 SLP262 T01170117
KOAJ 190356Z AUTO 02003KT 10SM CLR 12/11 A3030 RMK AO2 SLP265 T01170111 402220056
KOAJ 190256Z AUTO 00000KT 10SM CLR 11/11 A3030 RMK AO2 SLP266 T01110106 58002
KOAJ 190156Z AUTO 00000KT 10SM CLR 12/11 A3031 RMK AO2 SLP270 T01170106
KOAJ 190056Z AUTO 00000KT 10SM CLR 12/11 A3030 RMK AO2 SLP267 T01220111
KOAJ 182356Z AUTO 00000KT 10SM CLR 13/12 A3031 RMK AO2 SLP269 T01330117 10222 20128 53007
KOAJ 182256Z AUTO 00000KT 10SM CLR 15/12 A3029 RMK AO2 SLP264 T01500122
KOAJ 182156Z AUTO 01003KT 10SM CLR 19/10 A3029 RMK AO2 SLP261 T01940100
KOAJ 182056Z AUTO 05008KT 10SM CLR 22/09 A3029 RMK AO2 SLP261 T02170089 56010
KOAJ 181956Z AUTO 03006KT 10SM CLR 22/11 A3029 RMK AO2 SLP262 T02220106
KOAJ 181856Z AUTO 03005KT 10SM CLR 22/12 A3030 RMK AO2 SLP265 T02170117
KOAJ 181756Z AUTO 02006KT 10SM CLR 21/11 A3032 RMK AO2 SLP271 T02110111 10217 20083 58016
KOAJ 181656Z AUTO 04008KT 10SM CLR 20/11 A3035 RMK AO2 SLP281 T02000111
KOAJ 181556Z AUTO 04009KT 10SM CLR 19/11 A3037 RMK AO2 SLP288 T01890111
KOAJ 181456Z AUTO 02008KT 350V050 10SM CLR 17/11 A3037 RMK AO2 SLP288 T01670106 50007
KOAJ 181356Z AUTO 02007KT 10SM CLR 14/10 A3037 RMK AO2 SLP289 T01390100
KOAJ 181256Z AUTO 02007KT 10SM CLR 11/09 A3035 RMK AO2 SLP284 T01110089
KOAJ 181156Z AUTO 03005KT 10SM CLR 08/07 A3034 RMK AO2 SLP281 T00830067 10083 20056 53014
KOAJ 181056Z AUTO 02003KT 10SM CLR 07/06 A3033 RMK AO2 SLP276 T00720061
KOAJ 180956Z AUTO 02004KT 10SM CLR 07/06 A3031 RMK AO2 SLP271 T00720061
KOAJ 180856Z AUTO 02004KT 10SM CLR 07/06 A3030 RMK AO2 SLP266 T00720061 55002
KOAJ 180756Z AUTO 35003KT 10SM CLR 06/05 A3030 RMK AO2 SLP265 T00560050
KOAJ 180656Z AUTO 00000KT 10SM CLR 06/06 A3031 RMK AO2 SLP268 T00610056 TSNO
KOAJ 180556Z AUTO 00000KT 10SM CLR 06/06 A3031 RMK AO2 SLP268 T00610056 10111 20061 58006
KOAJ 180456Z AUTO 00000KT 10SM CLR 07/06 A3031 RMK AO2 SLP270 T00670061
KOAJ 180356Z AUTO 00000KT 10SM CLR 07/07 A3032 RMK AO2 SLP272 T00670067 401830067
KOAJ 180256Z AUTO 00000KT 10SM CLR 07/07 A3032 RMK AO2 SLP274 T00720072 51010
KOAJ 180156Z AUTO 00000KT 10SM CLR 08/08 A3032 RMK AO2 SLP273 T00830078
KOAJ 180056Z AUTO 00000KT 10SM CLR 09/08 A3031 RMK AO2 SLP268 T00890078
KOAJ 172356Z AUTO VRB03KT 10SM CLR 10/09 A3029 RMK AO2 SLP264 T01000089 10183 20100 53012
KOAJ 172256Z AUTO 00000KT 10SM CLR 12/09 A3028 RMK AO2 SLP260 T01220094